NOZ173 ENGM-EKCH
Flight info
| Callsign | NOZ173 |
|---|---|
| Flight time | 0h 48m |
| Altitude | 31000 |
| Route | OKSAT L996 KELIN DCT TOPLA L996 ERNOV |
| Aircraft | B38M/M-SDE1FGHILORVWXY/HB1 |
Departure
| Time | 2026-05-05 08:06 |
|---|---|
| Airport | Oslo-Gardermoen International Airport (ENGM) |
Arrival
| Time | 2026-05-05 08:54 |
|---|---|
| Airport | Copenhagen Kastrup Airport (EKCH) |
| Time | Latitude | Longitude | Altitude | Speed | Heading |
|---|---|---|---|---|---|
| 2026-05-05 07:52 | 60.19574 | 11.09349 | 688 ft | 0 kts | 196° |
| 2026-05-05 07:58 | 60.19580 | 11.09353 | 687 ft | 0 kts | 196° |
| 2026-05-05 07:58 | 60.19594 | 11.09361 | 692 ft | 3 kts | 196° |
| 2026-05-05 07:58 | 60.19612 | 11.09371 | 692 ft | 3 kts | 196° |
| 2026-05-05 07:59 | 60.19629 | 11.09381 | 688 ft | 3 kts | 196° |
| 2026-05-05 07:59 | 60.19638 | 11.09386 | 688 ft | 0 kts | 196° |
| 2026-05-05 08:01 | 60.19628 | 11.09362 | 690 ft | 6 kts | 249° |
| 2026-05-05 08:01 | 60.19653 | 11.09247 | 693 ft | 12 kts | 307° |
| 2026-05-05 08:01 | 60.19705 | 11.09106 | 691 ft | 13 kts | 305° |
| 2026-05-05 08:02 | 60.19749 | 11.08919 | 690 ft | 17 kts | 287° |
| 2026-05-05 08:02 | 60.19766 | 11.08704 | 679 ft | 15 kts | 250° |
| 2026-05-05 08:02 | 60.19660 | 11.08605 | 683 ft | 20 kts | 195° |
| 2026-05-05 08:02 | 60.19509 | 11.08516 | 687 ft | 26 kts | 196° |
| 2026-05-05 08:03 | 60.19302 | 11.08398 | 680 ft | 36 kts | 196° |
| 2026-05-05 08:03 | 60.19036 | 11.08244 | 681 ft | 43 kts | 196° |
| 2026-05-05 08:03 | 60.18814 | 11.08117 | 683 ft | 30 kts | 195° |
| 2026-05-05 08:03 | 60.18628 | 11.08013 | 679 ft | 26 kts | 195° |
| 2026-05-05 08:04 | 60.18542 | 11.07909 | 678 ft | 13 kts | 254° |
| 2026-05-05 08:04 | 60.18554 | 11.07733 | 681 ft | 12 kts | 284° |
| 2026-05-05 08:04 | 60.18576 | 11.07587 | 680 ft | 11 kts | 292° |
| 2026-05-05 08:04 | 60.18643 | 11.07464 | 680 ft | 15 kts | 352° |
| 2026-05-05 08:05 | 60.18694 | 11.07482 | 678 ft | 9 kts | 15° |
| 2026-05-05 08:05 | 60.18956 | 11.07631 | 681 ft | 77 kts | 15° |
| 2026-05-05 08:05 | 60.19699 | 11.08051 | 682 ft | 143 kts | 15° |
| 2026-05-05 08:05 | 60.20805 | 11.08713 | 850 ft | 181 kts | 14° |
| 2026-05-05 08:06 | 60.22062 | 11.09430 | 1587 ft | 191 kts | 13° |
| 2026-05-05 08:06 | 60.23351 | 11.10132 | 2602 ft | 193 kts | 12° |
| 2026-05-05 08:06 | 60.24707 | 11.10893 | 3348 ft | 213 kts | 11° |
| 2026-05-05 08:06 | 60.26208 | 11.11356 | 4113 ft | 226 kts | 1° |
| 2026-05-05 08:07 | 60.27826 | 11.11409 | 4974 ft | 236 kts | 358° |
| 2026-05-05 08:07 | 60.29471 | 11.11706 | 6022 ft | 241 kts | 10° |
| 2026-05-05 08:07 | 60.31085 | 11.12881 | 6901 ft | 254 kts | 24° |
| 2026-05-05 08:07 | 60.32597 | 11.14856 | 7790 ft | 264 kts | 37° |
| 2026-05-05 08:08 | 60.33896 | 11.17497 | 8830 ft | 267 kts | 50° |
| 2026-05-05 08:08 | 60.34860 | 11.20796 | 9636 ft | 283 kts | 66° |
| 2026-05-05 08:08 | 60.35365 | 11.24723 | 10320 ft | 294 kts | 83° |
| 2026-05-05 08:08 | 60.35280 | 11.28803 | 11425 ft | 289 kts | 101° |
| 2026-05-05 08:09 | 60.34634 | 11.32697 | 12130 ft | 302 kts | 118° |
| 2026-05-05 08:09 | 60.33424 | 11.36292 | 12628 ft | 316 kts | 133° |
| 2026-05-05 08:09 | 60.31695 | 11.39158 | 13060 ft | 331 kts | 155° |
| 2026-05-05 08:09 | 60.29468 | 11.40544 | 13415 ft | 344 kts | 170° |
| 2026-05-05 08:10 | 60.27085 | 11.41799 | 13677 ft | 364 kts | 167° |
| 2026-05-05 08:10 | 60.24577 | 11.43224 | 13849 ft | 383 kts | 168° |
| 2026-05-05 08:10 | 60.21966 | 11.44745 | 14168 ft | 397 kts | 169° |
| 2026-05-05 08:10 | 60.19288 | 11.46324 | 14628 ft | 404 kts | 169° |
| 2026-05-05 08:11 | 60.16580 | 11.47917 | 15254 ft | 408 kts | 170° |
| 2026-05-05 08:11 | 60.13841 | 11.49522 | 15837 ft | 412 kts | 171° |
| 2026-05-05 08:11 | 60.11081 | 11.51138 | 16443 ft | 415 kts | 172° |
| 2026-05-05 08:11 | 60.08296 | 11.52767 | 17040 ft | 419 kts | 173° |
| 2026-05-05 08:12 | 60.05484 | 11.54407 | 17634 ft | 422 kts | 174° |
| 2026-05-05 08:12 | 60.02689 | 11.56034 | 18207 ft | 426 kts | 175° |
| 2026-05-05 08:12 | 59.99832 | 11.57698 | 18713 ft | 429 kts | 175° |
| 2026-05-05 08:12 | 59.96960 | 11.59365 | 19215 ft | 431 kts | 175° |
| 2026-05-05 08:13 | 59.94074 | 11.61037 | 19629 ft | 433 kts | 175° |
| 2026-05-05 08:13 | 59.91175 | 11.62714 | 20134 ft | 435 kts | 175° |
| 2026-05-05 08:13 | 59.88257 | 11.64398 | 20600 ft | 438 kts | 175° |
| 2026-05-05 08:13 | 59.85322 | 11.66089 | 21060 ft | 440 kts | 175° |
| 2026-05-05 08:14 | 59.82372 | 11.67784 | 21512 ft | 443 kts | 175° |
| 2026-05-05 08:14 | 59.79402 | 11.69488 | 21951 ft | 446 kts | 175° |
| 2026-05-05 08:14 | 59.76415 | 11.71197 | 22417 ft | 448 kts | 175° |
| 2026-05-05 08:14 | 59.73412 | 11.72914 | 22847 ft | 451 kts | 175° |
| 2026-05-05 08:15 | 59.70393 | 11.74636 | 23274 ft | 453 kts | 175° |
| 2026-05-05 08:15 | 59.67354 | 11.76366 | 23642 ft | 456 kts | 175° |
| 2026-05-05 08:15 | 59.64299 | 11.78102 | 23941 ft | 458 kts | 175° |
| 2026-05-05 08:15 | 59.61230 | 11.79838 | 24256 ft | 461 kts | 174° |
| 2026-05-05 08:16 | 59.58139 | 11.81592 | 24606 ft | 462 kts | 174° |
| 2026-05-05 08:16 | 59.55049 | 11.83336 | 24984 ft | 463 kts | 174° |
| 2026-05-05 08:16 | 59.51939 | 11.85088 | 25299 ft | 466 kts | 174° |
| 2026-05-05 08:16 | 59.48817 | 11.86845 | 25637 ft | 468 kts | 174° |
| 2026-05-05 08:17 | 59.45680 | 11.88606 | 25955 ft | 470 kts | 174° |
| 2026-05-05 08:17 | 59.42527 | 11.90373 | 26273 ft | 472 kts | 173° |
| 2026-05-05 08:17 | 59.39361 | 11.92144 | 26591 ft | 474 kts | 173° |
| 2026-05-05 08:17 | 59.36188 | 11.93916 | 26938 ft | 474 kts | 173° |
| 2026-05-05 08:18 | 59.33008 | 11.95194 | 27247 ft | 457 kts | 186° |
| 2026-05-05 08:18 | 59.29870 | 11.95141 | 27607 ft | 450 kts | 190° |
| 2026-05-05 08:18 | 59.26741 | 11.94932 | 27930 ft | 450 kts | 191° |
| 2026-05-05 08:18 | 59.23622 | 11.94664 | 28302 ft | 448 kts | 191° |
| 2026-05-05 08:19 | 59.20515 | 11.94361 | 28681 ft | 447 kts | 192° |
| 2026-05-05 08:19 | 59.17414 | 11.94037 | 29059 ft | 446 kts | 192° |
| 2026-05-05 08:19 | 59.14323 | 11.93707 | 29428 ft | 445 kts | 192° |
| 2026-05-05 08:19 | 59.11234 | 11.93375 | 29773 ft | 444 kts | 192° |
| 2026-05-05 08:20 | 59.08153 | 11.93045 | 30100 ft | 443 kts | 192° |
| 2026-05-05 08:20 | 59.05073 | 11.92715 | 30310 ft | 443 kts | 192° |
| 2026-05-05 08:20 | 59.01992 | 11.92383 | 30580 ft | 443 kts | 191° |
| 2026-05-05 08:20 | 58.98919 | 11.92051 | 30841 ft | 443 kts | 191° |
| 2026-05-05 08:21 | 58.92750 | 11.91387 | 30906 ft | 452 kts | 191° |
| 2026-05-05 08:21 | 58.86435 | 11.90710 | 30914 ft | 457 kts | 191° |
| 2026-05-05 08:22 | 58.80024 | 11.90396 | 30899 ft | 472 kts | 181° |
| 2026-05-05 08:22 | 58.73486 | 11.92224 | 30881 ft | 475 kts | 180° |
| 2026-05-05 08:23 | 58.66928 | 11.93997 | 30913 ft | 477 kts | 180° |
| 2026-05-05 08:23 | 58.60354 | 11.95777 | 30913 ft | 477 kts | 180° |
| 2026-05-05 08:24 | 58.53772 | 11.97554 | 30919 ft | 478 kts | 180° |
| 2026-05-05 08:24 | 58.47184 | 11.99327 | 30908 ft | 478 kts | 180° |
| 2026-05-05 08:25 | 58.40598 | 12.01092 | 30910 ft | 478 kts | 180° |
| 2026-05-05 08:25 | 58.34014 | 12.02850 | 30920 ft | 478 kts | 180° |
| 2026-05-05 08:26 | 58.27424 | 12.04603 | 30921 ft | 478 kts | 180° |
| 2026-05-05 08:26 | 58.20829 | 12.06351 | 30923 ft | 479 kts | 180° |
| 2026-05-05 08:27 | 58.14229 | 12.08094 | 30927 ft | 479 kts | 180° |
| 2026-05-05 08:27 | 58.07632 | 12.09832 | 30931 ft | 471 kts | 180° |
| 2026-05-05 08:28 | 58.04450 | 12.10670 | 30935 ft | 457 kts | 180° |
| 2026-05-05 08:28 | 58.01314 | 12.11487 | 30938 ft | 455 kts | 180° |
| 2026-05-05 08:28 | 57.95061 | 12.13119 | 30940 ft | 458 kts | 180° |
| 2026-05-05 08:29 | 57.88749 | 12.14762 | 30888 ft | 458 kts | 180° |
| 2026-05-05 08:30 | 57.79280 | 12.17216 | 30935 ft | 458 kts | 180° |
| 2026-05-05 08:30 | 57.72965 | 12.18845 | 30893 ft | 458 kts | 180° |
| 2026-05-05 08:31 | 57.66676 | 12.20462 | 30913 ft | 455 kts | 180° |
| 2026-05-05 08:31 | 57.60395 | 12.22071 | 30883 ft | 456 kts | 179° |
| 2026-05-05 08:32 | 57.54105 | 12.23677 | 30940 ft | 457 kts | 179° |
| 2026-05-05 08:32 | 57.47809 | 12.25278 | 30941 ft | 456 kts | 179° |
| 2026-05-05 08:33 | 57.41514 | 12.26874 | 30947 ft | 457 kts | 179° |
| 2026-05-05 08:33 | 57.35218 | 12.28465 | 30941 ft | 457 kts | 179° |
| 2026-05-05 08:34 | 57.28965 | 12.30040 | 30922 ft | 457 kts | 179° |
| 2026-05-05 08:34 | 57.22650 | 12.31624 | 30938 ft | 458 kts | 179° |
| 2026-05-05 08:35 | 57.16430 | 12.33180 | 30376 ft | 446 kts | 179° |
| 2026-05-05 08:35 | 57.13359 | 12.33946 | 29850 ft | 446 kts | 179° |
| 2026-05-05 08:35 | 57.10281 | 12.34713 | 29257 ft | 447 kts | 179° |
| 2026-05-05 08:35 | 57.07193 | 12.35481 | 28680 ft | 448 kts | 179° |
| 2026-05-05 08:36 | 57.04095 | 12.36251 | 28062 ft | 450 kts | 179° |
| 2026-05-05 08:36 | 57.00989 | 12.37023 | 27509 ft | 452 kts | 179° |
| 2026-05-05 08:36 | 56.97866 | 12.37796 | 26960 ft | 454 kts | 179° |
| 2026-05-05 08:36 | 56.94734 | 12.38570 | 26431 ft | 455 kts | 179° |
| 2026-05-05 08:37 | 56.91595 | 12.39344 | 25911 ft | 456 kts | 179° |
| 2026-05-05 08:37 | 56.88447 | 12.40120 | 25380 ft | 457 kts | 178° |
| 2026-05-05 08:37 | 56.85306 | 12.40893 | 24874 ft | 454 kts | 178° |
| 2026-05-05 08:37 | 56.82845 | 12.41498 | 24480 ft | 451 kts | 179° |
| 2026-05-05 08:38 | 56.79748 | 12.42257 | 23998 ft | 448 kts | 179° |
| 2026-05-05 08:38 | 56.76668 | 12.43011 | 23513 ft | 445 kts | 179° |
| 2026-05-05 08:38 | 56.73614 | 12.43759 | 22917 ft | 442 kts | 178° |
| 2026-05-05 08:38 | 56.70581 | 12.44498 | 22357 ft | 438 kts | 178° |
| 2026-05-05 08:39 | 56.67564 | 12.45233 | 21810 ft | 435 kts | 178° |
| 2026-05-05 08:39 | 56.64577 | 12.45959 | 21274 ft | 432 kts | 178° |
| 2026-05-05 08:39 | 56.61620 | 12.46677 | 20753 ft | 429 kts | 178° |
| 2026-05-05 08:39 | 56.58667 | 12.47393 | 20232 ft | 426 kts | 178° |
| 2026-05-05 08:40 | 56.55734 | 12.48103 | 19719 ft | 424 kts | 178° |
| 2026-05-05 08:40 | 56.52835 | 12.48804 | 19224 ft | 417 kts | 178° |
| 2026-05-05 08:40 | 56.49976 | 12.49494 | 18737 ft | 412 kts | 178° |
| 2026-05-05 08:40 | 56.47157 | 12.50174 | 18211 ft | 406 kts | 178° |
| 2026-05-05 08:41 | 56.44370 | 12.50846 | 17651 ft | 402 kts | 178° |
| 2026-05-05 08:41 | 56.41613 | 12.51506 | 17099 ft | 398 kts | 178° |
| 2026-05-05 08:41 | 56.38884 | 12.52160 | 16552 ft | 394 kts | 178° |
| 2026-05-05 08:41 | 56.36182 | 12.52805 | 16022 ft | 390 kts | 178° |
| 2026-05-05 08:42 | 56.33500 | 12.53445 | 15490 ft | 387 kts | 178° |
| 2026-05-05 08:42 | 56.30837 | 12.54080 | 14981 ft | 384 kts | 178° |
| 2026-05-05 08:42 | 56.28194 | 12.54709 | 14465 ft | 382 kts | 178° |
| 2026-05-05 08:42 | 56.25570 | 12.55421 | 13964 ft | 383 kts | 172° |
| 2026-05-05 08:43 | 56.23058 | 12.57124 | 13440 ft | 388 kts | 161° |
| 2026-05-05 08:43 | 56.20611 | 12.59065 | 12864 ft | 379 kts | 162° |
| 2026-05-05 08:43 | 56.18234 | 12.60910 | 12287 ft | 365 kts | 162° |
| 2026-05-05 08:43 | 56.15933 | 12.62675 | 11748 ft | 354 kts | 162° |
| 2026-05-05 08:44 | 56.13702 | 12.64374 | 11199 ft | 344 kts | 162° |
| 2026-05-05 08:44 | 56.12255 | 12.65473 | 10849 ft | 338 kts | 162° |
| 2026-05-05 08:44 | 56.09406 | 12.67633 | 10154 ft | 327 kts | 162° |
| 2026-05-05 08:44 | 56.08029 | 12.68674 | 9813 ft | 323 kts | 162° |
| 2026-05-05 08:45 | 56.05979 | 12.70224 | 9250 ft | 317 kts | 162° |
| 2026-05-05 08:45 | 56.03974 | 12.71737 | 8789 ft | 308 kts | 162° |
| 2026-05-05 08:45 | 56.02029 | 12.73203 | 8368 ft | 299 kts | 162° |
| 2026-05-05 08:45 | 56.00133 | 12.74631 | 7948 ft | 292 kts | 162° |
| 2026-05-05 08:46 | 55.98282 | 12.76023 | 7539 ft | 285 kts | 161° |
| 2026-05-05 08:46 | 55.96470 | 12.77385 | 7115 ft | 280 kts | 161° |
| 2026-05-05 08:46 | 55.94692 | 12.78719 | 6700 ft | 275 kts | 161° |
| 2026-05-05 08:46 | 55.92942 | 12.80031 | 6310 ft | 272 kts | 161° |
| 2026-05-05 08:47 | 55.91211 | 12.81328 | 5895 ft | 267 kts | 161° |
| 2026-05-05 08:47 | 55.89517 | 12.82596 | 5513 ft | 261 kts | 161° |
| 2026-05-05 08:47 | 55.87859 | 12.83835 | 5155 ft | 256 kts | 160° |
| 2026-05-05 08:47 | 55.86229 | 12.85051 | 4778 ft | 252 kts | 160° |
| 2026-05-05 08:48 | 55.84629 | 12.86246 | 4397 ft | 247 kts | 160° |
| 2026-05-05 08:48 | 55.83081 | 12.87400 | 4023 ft | 242 kts | 159° |
| 2026-05-05 08:48 | 55.81544 | 12.88541 | 3698 ft | 236 kts | 158° |
| 2026-05-05 08:48 | 55.80051 | 12.89653 | 3390 ft | 230 kts | 158° |
| 2026-05-05 08:49 | 55.78598 | 12.90736 | 3077 ft | 223 kts | 158° |
| 2026-05-05 08:49 | 55.77168 | 12.91721 | 2852 ft | 220 kts | 167° |
| 2026-05-05 08:49 | 55.75660 | 12.91690 | 2598 ft | 219 kts | 199° |
| 2026-05-05 08:49 | 55.74390 | 12.90319 | 2341 ft | 211 kts | 230° |
| 2026-05-05 08:50 | 55.73645 | 12.88174 | 2165 ft | 198 kts | 246° |
| 2026-05-05 08:50 | 55.73055 | 12.86036 | 2064 ft | 190 kts | 247° |
| 2026-05-05 08:50 | 55.72439 | 12.83969 | 2005 ft | 190 kts | 242° |
| 2026-05-05 08:50 | 55.71735 | 12.81984 | 1999 ft | 190 kts | 238° |
| 2026-05-05 08:51 | 55.70936 | 12.80114 | 2004 ft | 191 kts | 232° |
| 2026-05-05 08:51 | 55.70040 | 12.78427 | 1970 ft | 182 kts | 226° |
| 2026-05-05 08:51 | 55.69130 | 12.76976 | 1773 ft | 167 kts | 224° |
| 2026-05-05 08:51 | 55.68311 | 12.75716 | 1591 ft | 146 kts | 224° |
| 2026-05-05 08:52 | 55.67563 | 12.74550 | 1376 ft | 149 kts | 224° |
| 2026-05-05 08:52 | 55.66766 | 12.73309 | 1185 ft | 156 kts | 224° |
| 2026-05-05 08:52 | 55.65936 | 12.72020 | 948 ft | 158 kts | 225° |
| 2026-05-05 08:52 | 55.65098 | 12.70761 | 708 ft | 157 kts | 223° |
| 2026-05-05 08:53 | 55.64282 | 12.69495 | 510 ft | 156 kts | 224° |
| 2026-05-05 08:53 | 55.63468 | 12.68228 | 308 ft | 154 kts | 224° |
| 2026-05-05 08:53 | 55.62679 | 12.66973 | 103 ft | 150 kts | 224° |
| 2026-05-05 08:53 | 55.61942 | 12.65822 | 27 ft | 128 kts | 221° |
| 2026-05-05 08:54 | 55.61436 | 12.65041 | 26 ft | 59 kts | 221° |
| 2026-05-05 08:54 | 55.61277 | 12.64714 | 27 ft | 32 kts | 245° |
| 2026-05-05 08:54 | 55.61213 | 12.64404 | 27 ft | 16 kts | 250° |
| 2026-05-05 08:54 | 55.61192 | 12.64200 | 27 ft | 18 kts | 281° |
| 2026-05-05 08:55 | 55.61290 | 12.64123 | 26 ft | 19 kts | 27° |
| 2026-05-05 08:55 | 55.61435 | 12.64285 | 30 ft | 31 kts | 33° |
| 2026-05-05 08:55 | 55.61603 | 12.64479 | 26 ft | 18 kts | 33° |
| 2026-05-05 08:55 | 55.61683 | 12.64571 | 29 ft | 10 kts | 32° |
| 2026-05-05 08:56 | 55.61749 | 12.64647 | 28 ft | 15 kts | 33° |
| 2026-05-05 08:56 | 55.61874 | 12.64791 | 28 ft | 28 kts | 33° |
| 2026-05-05 08:56 | 55.62070 | 12.65012 | 27 ft | 33 kts | 33° |
| 2026-05-05 08:56 | 55.62248 | 12.65198 | 26 ft | 28 kts | 7° |
| 2026-05-05 08:57 | 55.62482 | 12.65196 | 28 ft | 34 kts | 356° |
| 2026-05-05 08:57 | 55.62637 | 12.65214 | 28 ft | 18 kts | 39° |
| 2026-05-05 08:57 | 55.62714 | 12.65321 | 26 ft | 9 kts | 15° |
| 2026-05-05 08:57 | 55.62719 | 12.65323 | 26 ft | 0 kts | 15° |